sensor_id;sensor_type;location;lat;lon;timestamp;P1;durP1;ratioP1;P2;durP2;ratioP2
26951;SDS011;14507;52.418;13.398;2022-12-18T00:01:35;60.25;;;22.77;;
26951;SDS011;14507;52.418;13.398;2022-12-18T00:08:58;66.00;;;21.63;;
26951;SDS011;14507;52.418;13.398;2022-12-18T00:11:25;64.53;;;22.38;;
26951;SDS011;14507;52.418;13.398;2022-12-18T00:13:53;58.95;;;21.90;;
26951;SDS011;14507;52.418;13.398;2022-12-18T00:16:21;71.57;;;24.67;;
26951;SDS011;14507;52.418;13.398;2022-12-18T00:18:49;65.32;;;23.17;;
26951;SDS011;14507;52.418;13.398;2022-12-18T00:21:17;66.88;;;22.50;;
26951;SDS011;14507;52.418;13.398;2022-12-18T00:23:43;75.00;;;24.00;;
26951;SDS011;14507;52.418;13.398;2022-12-18T00:26:11;70.38;;;24.50;;
26951;SDS011;14507;52.418;13.398;2022-12-18T00:28:43;71.45;;;24.85;;
26951;SDS011;14507;52.418;13.398;2022-12-18T00:31:13;69.47;;;24.08;;
26951;SDS011;14507;52.418;13.398;2022-12-18T00:33:43;65.82;;;23.35;;
26951;SDS011;14507;52.418;13.398;2022-12-18T00:36:16;71.75;;;23.35;;
26951;SDS011;14507;52.418;13.398;2022-12-18T00:38:44;67.78;;;23.17;;
26951;SDS011;14507;52.418;13.398;2022-12-18T00:41:11;70.90;;;24.33;;
26951;SDS011;14507;52.418;13.398;2022-12-18T00:43:39;75.50;;;24.98;;
26951;SDS011;14507;52.418;13.398;2022-12-18T00:46:05;71.25;;;22.50;;
26951;SDS011;14507;52.418;13.398;2022-12-18T00:48:31;67.18;;;24.15;;
26951;SDS011;14507;52.418;13.398;2022-12-18T00:50:57;63.50;;;21.33;;
26951;SDS011;14507;52.418;13.398;2022-12-18T00:53:22;71.85;;;24.35;;
26951;SDS011;14507;52.418;13.398;2022-12-18T00:55:48;66.22;;;23.25;;
26951;SDS011;14507;52.418;13.398;2022-12-18T00:58:15;72.10;;;25.73;;
26951;SDS011;14507;52.418;13.398;2022-12-18T01:00:41;72.38;;;24.70;;
26951;SDS011;14507;52.418;13.398;2022-12-18T01:03:07;88.55;;;28.63;;
26951;SDS011;14507;52.418;13.398;2022-12-18T01:05:38;87.35;;;27.05;;
26951;SDS011;14507;52.418;13.398;2022-12-18T01:08:07;73.78;;;26.25;;
26951;SDS011;14507;52.418;13.398;2022-12-18T01:10:33;74.22;;;24.48;;
26951;SDS011;14507;52.418;13.398;2022-12-18T01:12:58;77.50;;;25.48;;
26951;SDS011;14507;52.418;13.398;2022-12-18T01:15:24;73.80;;;24.85;;
26951;SDS011;14507;52.418;13.398;2022-12-18T01:17:51;65.75;;;23.42;;
26951;SDS011;14507;52.418;13.398;2022-12-18T01:20:17;65.32;;;22.17;;
26951;SDS011;14507;52.418;13.398;2022-12-18T01:22:43;65.22;;;23.08;;
26951;SDS011;14507;52.418;13.398;2022-12-18T01:25:09;68.68;;;24.95;;
26951;SDS011;14507;52.418;13.398;2022-12-18T01:27:34;71.63;;;24.13;;
26951;SDS011;14507;52.418;13.398;2022-12-18T01:30:00;72.68;;;25.38;;
26951;SDS011;14507;52.418;13.398;2022-12-18T01:32:26;74.93;;;25.75;;
26951;SDS011;14507;52.418;13.398;2022-12-18T01:34:54;80.57;;;27.70;;
26951;SDS011;14507;52.418;13.398;2022-12-18T01:37:19;82.55;;;27.98;;
26951;SDS011;14507;52.418;13.398;2022-12-18T01:39:45;80.43;;;27.52;;
26951;SDS011;14507;52.418;13.398;2022-12-18T01:42:13;86.00;;;27.77;;
26951;SDS011;14507;52.418;13.398;2022-12-18T01:47:14;94.75;;;30.02;;
26951;SDS011;14507;52.418;13.398;2022-12-18T01:49:46;90.03;;;29.73;;
26951;SDS011;14507;52.418;13.398;2022-12-18T01:52:14;86.45;;;29.75;;
26951;SDS011;14507;52.418;13.398;2022-12-18T01:54:41;95.88;;;30.25;;
26951;SDS011;14507;52.418;13.398;2022-12-18T01:57:07;96.75;;;31.77;;
26951;SDS011;14507;52.418;13.398;2022-12-18T01:59:33;89.60;;;29.83;;
26951;SDS011;14507;52.418;13.398;2022-12-18T02:02:00;92.30;;;30.17;;
26951;SDS011;14507;52.418;13.398;2022-12-18T02:04:27;99.53;;;31.50;;
26951;SDS011;14507;52.418;13.398;2022-12-18T02:07:13;103.03;;;31.85;;
26951;SDS011;14507;52.418;13.398;2022-12-18T02:10:03;108.07;;;33.05;;
26951;SDS011;14507;52.418;13.398;2022-12-18T02:15:07;82.38;;;29.95;;
26951;SDS011;14507;52.418;13.398;2022-12-18T02:17:50;82.55;;;28.33;;
26951;SDS011;14507;52.418;13.398;2022-12-18T02:20:23;81.93;;;28.05;;
26951;SDS011;14507;52.418;13.398;2022-12-18T02:23:23;79.65;;;26.73;;
26951;SDS011;14507;52.418;13.398;2022-12-18T02:26:05;84.78;;;27.55;;
26951;SDS011;14507;52.418;13.398;2022-12-18T02:28:45;82.97;;;28.50;;
26951;SDS011;14507;52.418;13.398;2022-12-18T02:31:21;81.10;;;28.35;;
26951;SDS011;14507;52.418;13.398;2022-12-18T02:33:51;91.32;;;29.85;;
26951;SDS011;14507;52.418;13.398;2022-12-18T02:36:20;84.70;;;28.38;;
26951;SDS011;14507;52.418;13.398;2022-12-18T02:38:46;96.45;;;29.92;;
26951;SDS011;14507;52.418;13.398;2022-12-18T02:41:13;95.22;;;31.00;;
26951;SDS011;14507;52.418;13.398;2022-12-18T02:43:40;82.05;;;27.92;;
26951;SDS011;14507;52.418;13.398;2022-12-18T02:49:48;83.82;;;28.40;;
26951;SDS011;14507;52.418;13.398;2022-12-18T02:52:24;83.80;;;29.38;;
26951;SDS011;14507;52.418;13.398;2022-12-18T02:55:18;91.38;;;27.88;;
26951;SDS011;14507;52.418;13.398;2022-12-18T02:57:55;87.30;;;28.10;;
26951;SDS011;14507;52.418;13.398;2022-12-18T03:00:29;87.97;;;30.60;;
26951;SDS011;14507;52.418;13.398;2022-12-18T03:03:06;103.03;;;34.50;;
26951;SDS011;14507;52.418;13.398;2022-12-18T03:05:48;121.15;;;35.50;;
26951;SDS011;14507;52.418;13.398;2022-12-18T03:08:27;115.38;;;36.35;;
26951;SDS011;14507;52.418;13.398;2022-12-18T03:10:59;117.13;;;35.22;;
26951;SDS011;14507;52.418;13.398;2022-12-18T03:16:02;110.55;;;33.38;;
26951;SDS011;14507;52.418;13.398;2022-12-18T03:18:33;110.25;;;34.10;;
26951;SDS011;14507;52.418;13.398;2022-12-18T03:21:03;102.50;;;31.65;;
26951;SDS011;14507;52.418;13.398;2022-12-18T03:23:34;104.25;;;31.50;;
26951;SDS011;14507;52.418;13.398;2022-12-18T03:26:06;106.50;;;32.03;;
26951;SDS011;14507;52.418;13.398;2022-12-18T03:28:35;108.07;;;33.40;;
26951;SDS011;14507;52.418;13.398;2022-12-18T03:31:04;112.32;;;33.30;;
26951;SDS011;14507;52.418;13.398;2022-12-18T03:33:47;109.28;;;33.33;;
26951;SDS011;14507;52.418;13.398;2022-12-18T03:36:20;113.43;;;33.78;;
26951;SDS011;14507;52.418;13.398;2022-12-18T03:38:47;114.93;;;34.38;;
26951;SDS011;14507;52.418;13.398;2022-12-18T03:41:32;121.63;;;34.97;;
26951;SDS011;14507;52.418;13.398;2022-12-18T03:52:36;119.80;;;35.53;;
26951;SDS011;14507;52.418;13.398;2022-12-18T03:55:07;130.70;;;36.40;;
26951;SDS011;14507;52.418;13.398;2022-12-18T03:57:34;135.73;;;38.50;;
26951;SDS011;14507;52.418;13.398;2022-12-18T04:00:05;133.63;;;38.03;;
26951;SDS011;14507;52.418;13.398;2022-12-18T04:02:33;122.18;;;37.22;;
26951;SDS011;14507;52.418;13.398;2022-12-18T04:05:02;125.25;;;36.50;;
26951;SDS011;14507;52.418;13.398;2022-12-18T04:07:31;125.25;;;36.33;;
26951;SDS011;14507;52.418;13.398;2022-12-18T04:09:58;134.35;;;36.47;;
26951;SDS011;14507;52.418;13.398;2022-12-18T04:14:53;111.80;;;31.52;;
26951;SDS011;14507;52.418;13.398;2022-12-18T04:17:19;111.57;;;33.13;;
26951;SDS011;14507;52.418;13.398;2022-12-18T04:19:45;101.35;;;32.00;;
26951;SDS011;14507;52.418;13.398;2022-12-18T04:22:10;92.15;;;29.25;;
26951;SDS011;14507;52.418;13.398;2022-12-18T04:24:36;102.63;;;32.10;;
26951;SDS011;14507;52.418;13.398;2022-12-18T04:27:02;86.95;;;29.58;;
26951;SDS011;14507;52.418;13.398;2022-12-18T04:29:28;84.70;;;27.85;;
26951;SDS011;14507;52.418;13.398;2022-12-18T04:31:53;92.38;;;26.83;;
26951;SDS011;14507;52.418;13.398;2022-12-18T04:34:19;92.53;;;27.60;;
26951;SDS011;14507;52.418;13.398;2022-12-18T04:36:45;94.38;;;27.13;;
26951;SDS011;14507;52.418;13.398;2022-12-18T04:39:11;88.70;;;27.60;;
26951;SDS011;14507;52.418;13.398;2022-12-18T04:41:37;90.63;;;28.65;;
26951;SDS011;14507;52.418;13.398;2022-12-18T04:44:03;78.13;;;27.38;;
26951;SDS011;14507;52.418;13.398;2022-12-18T04:46:28;83.55;;;25.88;;
26951;SDS011;14507;52.418;13.398;2022-12-18T04:48:54;102.85;;;30.45;;
26951;SDS011;14507;52.418;13.398;2022-12-18T04:51:20;91.35;;;27.83;;
26951;SDS011;14507;52.418;13.398;2022-12-18T04:53:45;88.35;;;26.77;;
26951;SDS011;14507;52.418;13.398;2022-12-18T04:56:12;82.10;;;27.23;;
26951;SDS011;14507;52.418;13.398;2022-12-18T04:58:39;101.85;;;28.45;;
26951;SDS011;14507;52.418;13.398;2022-12-18T05:01:06;98.10;;;30.08;;
26951;SDS011;14507;52.418;13.398;2022-12-18T05:03:33;99.60;;;29.40;;
26951;SDS011;14507;52.418;13.398;2022-12-18T05:05:59;104.55;;;31.23;;
26951;SDS011;14507;52.418;13.398;2022-12-18T05:08:25;102.05;;;32.70;;
26951;SDS011;14507;52.418;13.398;2022-12-18T05:11:01;94.20;;;31.02;;
26951;SDS011;14507;52.418;13.398;2022-12-18T05:13:28;99.80;;;30.27;;
26951;SDS011;14507;52.418;13.398;2022-12-18T05:15:54;99.20;;;30.15;;
26951;SDS011;14507;52.418;13.398;2022-12-18T05:18:20;102.88;;;32.65;;
26951;SDS011;14507;52.418;13.398;2022-12-18T05:20:47;109.40;;;33.08;;
26951;SDS011;14507;52.418;13.398;2022-12-18T05:23:13;108.80;;;32.60;;
26951;SDS011;14507;52.418;13.398;2022-12-18T05:25:39;120.32;;;35.88;;
26951;SDS011;14507;52.418;13.398;2022-12-18T05:28:04;117.22;;;34.90;;
26951;SDS011;14507;52.418;13.398;2022-12-18T05:30:30;118.50;;;35.03;;
26951;SDS011;14507;52.418;13.398;2022-12-18T05:32:56;110.05;;;35.85;;
26951;SDS011;14507;52.418;13.398;2022-12-18T05:35:21;120.75;;;35.65;;
26951;SDS011;14507;52.418;13.398;2022-12-18T05:37:47;118.75;;;34.33;;
26951;SDS011;14507;52.418;13.398;2022-12-18T05:40:12;116.05;;;35.45;;
26951;SDS011;14507;52.418;13.398;2022-12-18T05:42:38;125.88;;;34.10;;
26951;SDS011;14507;52.418;13.398;2022-12-18T05:45:04;111.88;;;36.08;;
26951;SDS011;14507;52.418;13.398;2022-12-18T05:47:30;108.93;;;34.08;;
26951;SDS011;14507;52.418;13.398;2022-12-18T05:49:56;117.35;;;37.20;;
26951;SDS011;14507;52.418;13.398;2022-12-18T05:52:22;116.00;;;34.33;;
26951;SDS011;14507;52.418;13.398;2022-12-18T05:54:47;120.97;;;35.72;;
26951;SDS011;14507;52.418;13.398;2022-12-18T05:57:13;118.53;;;35.53;;
26951;SDS011;14507;52.418;13.398;2022-12-18T05:59:39;121.20;;;34.88;;
26951;SDS011;14507;52.418;13.398;2022-12-18T06:02:04;109.07;;;34.85;;
26951;SDS011;14507;52.418;13.398;2022-12-18T06:04:30;116.18;;;35.05;;
26951;SDS011;14507;52.418;13.398;2022-12-18T06:06:56;117.57;;;35.78;;
26951;SDS011;14507;52.418;13.398;2022-12-18T06:09:21;126.00;;;36.47;;
26951;SDS011;14507;52.418;13.398;2022-12-18T06:11:47;130.27;;;39.45;;
26951;SDS011;14507;52.418;13.398;2022-12-18T06:14:13;118.60;;;36.20;;
26951;SDS011;14507;52.418;13.398;2022-12-18T06:16:38;112.20;;;37.38;;
26951;SDS011;14507;52.418;13.398;2022-12-18T06:19:04;122.60;;;37.15;;
26951;SDS011;14507;52.418;13.398;2022-12-18T06:21:31;116.07;;;34.08;;
26951;SDS011;14507;52.418;13.398;2022-12-18T06:23:57;111.43;;;34.30;;
26951;SDS011;14507;52.418;13.398;2022-12-18T06:26:23;111.63;;;34.67;;
26951;SDS011;14507;52.418;13.398;2022-12-18T06:28:48;104.40;;;35.35;;
26951;SDS011;14507;52.418;13.398;2022-12-18T06:31:14;105.70;;;33.33;;
26951;SDS011;14507;52.418;13.398;2022-12-18T06:33:40;105.53;;;32.58;;
26951;SDS011;14507;52.418;13.398;2022-12-18T06:36:07;105.32;;;31.85;;
26951;SDS011;14507;52.418;13.398;2022-12-18T06:38:35;99.28;;;31.10;;
26951;SDS011;14507;52.418;13.398;2022-12-18T06:41:12;105.65;;;32.67;;
26951;SDS011;14507;52.418;13.398;2022-12-18T06:43:39;103.37;;;31.93;;
26951;SDS011;14507;52.418;13.398;2022-12-18T06:46:05;106.55;;;32.88;;
26951;SDS011;14507;52.418;13.398;2022-12-18T06:48:31;102.82;;;32.30;;
26951;SDS011;14507;52.418;13.398;2022-12-18T06:50:57;94.43;;;29.27;;
26951;SDS011;14507;52.418;13.398;2022-12-18T06:53:23;105.63;;;29.92;;
26951;SDS011;14507;52.418;13.398;2022-12-18T06:55:49;98.80;;;29.25;;
26951;SDS011;14507;52.418;13.398;2022-12-18T06:58:15;89.40;;;28.85;;
26951;SDS011;14507;52.418;13.398;2022-12-18T07:00:41;100.57;;;30.52;;
26951;SDS011;14507;52.418;13.398;2022-12-18T07:03:06;85.93;;;29.17;;
26951;SDS011;14507;52.418;13.398;2022-12-18T07:05:32;93.95;;;28.60;;
26951;SDS011;14507;52.418;13.398;2022-12-18T07:07:58;87.78;;;28.98;;
26951;SDS011;14507;52.418;13.398;2022-12-18T07:10:24;87.40;;;27.98;;
26951;SDS011;14507;52.418;13.398;2022-12-18T07:12:50;83.15;;;28.00;;
26951;SDS011;14507;52.418;13.398;2022-12-18T07:15:15;87.93;;;27.60;;
26951;SDS011;14507;52.418;13.398;2022-12-18T07:17:41;79.38;;;27.98;;
26951;SDS011;14507;52.418;13.398;2022-12-18T07:20:07;86.10;;;27.80;;
26951;SDS011;14507;52.418;13.398;2022-12-18T07:22:33;89.45;;;29.08;;
26951;SDS011;14507;52.418;13.398;2022-12-18T07:24:59;93.18;;;29.58;;
26951;SDS011;14507;52.418;13.398;2022-12-18T07:27:24;92.88;;;30.92;;
26951;SDS011;14507;52.418;13.398;2022-12-18T07:29:50;89.72;;;30.25;;
26951;SDS011;14507;52.418;13.398;2022-12-18T07:32:15;95.57;;;29.00;;
26951;SDS011;14507;52.418;13.398;2022-12-18T07:34:41;90.43;;;28.77;;
26951;SDS011;14507;52.418;13.398;2022-12-18T07:37:07;88.10;;;29.33;;
26951;SDS011;14507;52.418;13.398;2022-12-18T07:39:32;99.07;;;30.52;;
26951;SDS011;14507;52.418;13.398;2022-12-18T07:41:58;104.45;;;30.85;;
26951;SDS011;14507;52.418;13.398;2022-12-18T07:44:42;94.78;;;29.52;;
26951;SDS011;14507;52.418;13.398;2022-12-18T07:47:08;90.72;;;28.67;;
26951;SDS011;14507;52.418;13.398;2022-12-18T07:49:33;87.50;;;28.30;;
26951;SDS011;14507;52.418;13.398;2022-12-18T07:51:59;87.10;;;27.55;;
26951;SDS011;14507;52.418;13.398;2022-12-18T07:54:25;91.07;;;28.80;;
26951;SDS011;14507;52.418;13.398;2022-12-18T07:56:51;98.82;;;28.52;;
26951;SDS011;14507;52.418;13.398;2022-12-18T07:59:17;91.75;;;28.35;;
26951;SDS011;14507;52.418;13.398;2022-12-18T08:01:43;101.57;;;29.75;;
26951;SDS011;14507;52.418;13.398;2022-12-18T08:04:09;103.90;;;30.88;;
26951;SDS011;14507;52.418;13.398;2022-12-18T08:06:35;101.45;;;30.52;;
26951;SDS011;14507;52.418;13.398;2022-12-18T08:09:01;98.10;;;29.85;;
26951;SDS011;14507;52.418;13.398;2022-12-18T08:11:27;108.85;;;31.63;;
26951;SDS011;14507;52.418;13.398;2022-12-18T08:13:53;103.80;;;30.52;;
26951;SDS011;14507;52.418;13.398;2022-12-18T08:16:20;94.43;;;30.23;;
26951;SDS011;14507;52.418;13.398;2022-12-18T08:18:47;106.15;;;29.60;;
26951;SDS011;14507;52.418;13.398;2022-12-18T08:21:17;101.68;;;31.75;;
26951;SDS011;14507;52.418;13.398;2022-12-18T08:23:46;91.32;;;28.15;;
26951;SDS011;14507;52.418;13.398;2022-12-18T08:26:11;97.25;;;28.10;;
26951;SDS011;14507;52.418;13.398;2022-12-18T08:28:38;94.57;;;30.50;;
26951;SDS011;14507;52.418;13.398;2022-12-18T08:31:04;91.75;;;29.70;;
26951;SDS011;14507;52.418;13.398;2022-12-18T08:33:30;96.57;;;28.90;;
26951;SDS011;14507;52.418;13.398;2022-12-18T08:35:56;102.35;;;31.15;;
26951;SDS011;14507;52.418;13.398;2022-12-18T08:38:23;93.82;;;29.70;;
26951;SDS011;14507;52.418;13.398;2022-12-18T08:40:49;98.25;;;28.50;;
26951;SDS011;14507;52.418;13.398;2022-12-18T08:43:14;93.22;;;28.42;;
26951;SDS011;14507;52.418;13.398;2022-12-18T08:46:01;89.70;;;27.08;;
26951;SDS011;14507;52.418;13.398;2022-12-18T08:48:27;82.82;;;27.42;;
26951;SDS011;14507;52.418;13.398;2022-12-18T08:50:53;84.95;;;26.88;;
26951;SDS011;14507;52.418;13.398;2022-12-18T08:53:24;86.90;;;27.45;;
26951;SDS011;14507;52.418;13.398;2022-12-18T08:55:50;85.85;;;27.63;;
26951;SDS011;14507;52.418;13.398;2022-12-18T08:58:15;81.38;;;27.35;;
26951;SDS011;14507;52.418;13.398;2022-12-18T09:00:41;87.50;;;28.40;;
26951;SDS011;14507;52.418;13.398;2022-12-18T09:03:13;92.10;;;27.77;;
26951;SDS011;14507;52.418;13.398;2022-12-18T09:05:39;81.78;;;26.23;;
26951;SDS011;14507;52.418;13.398;2022-12-18T09:08:05;76.70;;;25.95;;
26951;SDS011;14507;52.418;13.398;2022-12-18T09:10:31;83.60;;;26.92;;
26951;SDS011;14507;52.418;13.398;2022-12-18T09:12:57;83.55;;;26.15;;
26951;SDS011;14507;52.418;13.398;2022-12-18T09:15:22;90.10;;;28.48;;
26951;SDS011;14507;52.418;13.398;2022-12-18T09:17:48;90.82;;;28.95;;
26951;SDS011;14507;52.418;13.398;2022-12-18T09:20:15;76.20;;;25.60;;
26951;SDS011;14507;52.418;13.398;2022-12-18T09:22:41;82.88;;;28.02;;
26951;SDS011;14507;52.418;13.398;2022-12-18T09:25:06;86.88;;;28.33;;
26951;SDS011;14507;52.418;13.398;2022-12-18T09:27:33;88.13;;;27.55;;
26951;SDS011;14507;52.418;13.398;2022-12-18T09:29:59;79.80;;;28.85;;
26951;SDS011;14507;52.418;13.398;2022-12-18T09:32:24;84.93;;;27.25;;
26951;SDS011;14507;52.418;13.398;2022-12-18T09:34:50;87.72;;;27.90;;
26951;SDS011;14507;52.418;13.398;2022-12-18T09:37:16;94.70;;;28.85;;
26951;SDS011;14507;52.418;13.398;2022-12-18T09:39:41;87.13;;;27.40;;
26951;SDS011;14507;52.418;13.398;2022-12-18T09:42:09;83.63;;;28.48;;
26951;SDS011;14507;52.418;13.398;2022-12-18T09:44:53;80.72;;;26.67;;
26951;SDS011;14507;52.418;13.398;2022-12-18T09:49:56;77.10;;;25.67;;
26951;SDS011;14507;52.418;13.398;2022-12-18T09:55:01;90.32;;;28.25;;
26951;SDS011;14507;52.418;13.398;2022-12-18T09:57:35;71.43;;;25.75;;
26951;SDS011;14507;52.418;13.398;2022-12-18T10:00:25;80.38;;;26.83;;
26951;SDS011;14507;52.418;13.398;2022-12-18T10:02:51;82.68;;;26.25;;
26951;SDS011;14507;52.418;13.398;2022-12-18T10:05:29;75.97;;;25.30;;
26951;SDS011;14507;52.418;13.398;2022-12-18T10:08:33;81.10;;;26.63;;
26951;SDS011;14507;52.418;13.398;2022-12-18T10:14:08;89.00;;;28.50;;
26951;SDS011;14507;52.418;13.398;2022-12-18T10:19:48;87.95;;;27.98;;
26951;SDS011;14507;52.418;13.398;2022-12-18T10:24:59;80.40;;;27.08;;
26951;SDS011;14507;52.418;13.398;2022-12-18T10:27:39;86.30;;;28.02;;
26951;SDS011;14507;52.418;13.398;2022-12-18T10:30:18;84.63;;;27.67;;
26951;SDS011;14507;52.418;13.398;2022-12-18T10:32:45;84.32;;;28.60;;
26951;SDS011;14507;52.418;13.398;2022-12-18T10:35:15;84.82;;;29.20;;
26951;SDS011;14507;52.418;13.398;2022-12-18T10:40:50;81.18;;;26.25;;
26951;SDS011;14507;52.418;13.398;2022-12-18T10:43:19;84.20;;;27.65;;
26951;SDS011;14507;52.418;13.398;2022-12-18T10:45:58;82.88;;;26.77;;
26951;SDS011;14507;52.418;13.398;2022-12-18T10:48:24;87.55;;;28.27;;
26951;SDS011;14507;52.418;13.398;2022-12-18T10:50:50;90.32;;;29.98;;
26951;SDS011;14507;52.418;13.398;2022-12-18T10:53:24;93.57;;;29.75;;
26951;SDS011;14507;52.418;13.398;2022-12-18T10:55:52;92.57;;;30.23;;
26951;SDS011;14507;52.418;13.398;2022-12-18T10:58:21;93.07;;;29.45;;
26951;SDS011;14507;52.418;13.398;2022-12-18T11:06:15;87.38;;;28.60;;
26951;SDS011;14507;52.418;13.398;2022-12-18T11:08:44;95.32;;;28.55;;
26951;SDS011;14507;52.418;13.398;2022-12-18T11:11:26;83.80;;;27.88;;
26951;SDS011;14507;52.418;13.398;2022-12-18T11:14:02;88.80;;;29.65;;
26951;SDS011;14507;52.418;13.398;2022-12-18T11:16:32;93.55;;;28.38;;
26951;SDS011;14507;52.418;13.398;2022-12-18T11:21:56;88.15;;;27.90;;
26951;SDS011;14507;52.418;13.398;2022-12-18T11:24:26;86.60;;;29.00;;
26951;SDS011;14507;52.418;13.398;2022-12-18T11:27:00;89.38;;;28.48;;
26951;SDS011;14507;52.418;13.398;2022-12-18T11:29:30;91.05;;;27.13;;
26951;SDS011;14507;52.418;13.398;2022-12-18T11:32:19;82.85;;;26.05;;
26951;SDS011;14507;52.418;13.398;2022-12-18T11:34:46;82.10;;;26.52;;
26951;SDS011;14507;52.418;13.398;2022-12-18T11:37:16;87.18;;;28.17;;
26951;SDS011;14507;52.418;13.398;2022-12-18T11:39:52;87.47;;;28.60;;
26951;SDS011;14507;52.418;13.398;2022-12-18T11:42:39;85.10;;;25.77;;
26951;SDS011;14507;52.418;13.398;2022-12-18T11:50:19;82.18;;;27.23;;
26951;SDS011;14507;52.418;13.398;2022-12-18T11:52:49;66.47;;;25.00;;
26951;SDS011;14507;52.418;13.398;2022-12-18T12:06:37;79.35;;;26.27;;
26951;SDS011;14507;52.418;13.398;2022-12-18T12:09:23;76.90;;;26.88;;
26951;SDS011;14507;52.418;13.398;2022-12-18T12:12:16;64.90;;;24.13;;
26951;SDS011;14507;52.418;13.398;2022-12-18T12:15:02;80.40;;;25.77;;
26951;SDS011;14507;52.418;13.398;2022-12-18T12:20:35;70.97;;;24.58;;
26951;SDS011;14507;52.418;13.398;2022-12-18T12:23:29;89.30;;;28.63;;
26951;SDS011;14507;52.418;13.398;2022-12-18T12:26:12;81.20;;;27.50;;
26951;SDS011;14507;52.418;13.398;2022-12-18T12:29:02;81.68;;;28.10;;
26951;SDS011;14507;52.418;13.398;2022-12-18T12:39:37;80.18;;;29.50;;
26951;SDS011;14507;52.418;13.398;2022-12-18T12:42:06;80.53;;;28.83;;
26951;SDS011;14507;52.418;13.398;2022-12-18T12:45:03;78.93;;;28.42;;
26951;SDS011;14507;52.418;13.398;2022-12-18T12:47:36;76.40;;;28.38;;
26951;SDS011;14507;52.418;13.398;2022-12-18T12:50:06;75.55;;;28.25;;
26951;SDS011;14507;52.418;13.398;2022-12-18T12:52:44;75.93;;;28.00;;
26951;SDS011;14507;52.418;13.398;2022-12-18T12:55:24;84.55;;;29.52;;
26951;SDS011;14507;52.418;13.398;2022-12-18T13:00:24;73.25;;;27.67;;
26951;SDS011;14507;52.418;13.398;2022-12-18T13:03:12;73.75;;;26.77;;
26951;SDS011;14507;52.418;13.398;2022-12-18T13:06:04;78.57;;;30.52;;
26951;SDS011;14507;52.418;13.398;2022-12-18T13:08:55;68.25;;;25.98;;
26951;SDS011;14507;52.418;13.398;2022-12-18T13:11:35;75.60;;;28.73;;
26951;SDS011;14507;52.418;13.398;2022-12-18T13:14:21;77.78;;;30.80;;
26951;SDS011;14507;52.418;13.398;2022-12-18T13:17:13;85.30;;;31.17;;
26951;SDS011;14507;52.418;13.398;2022-12-18T13:20:12;69.57;;;28.65;;
26951;SDS011;14507;52.418;13.398;2022-12-18T13:22:44;69.95;;;27.35;;
26951;SDS011;14507;52.418;13.398;2022-12-18T13:25:27;77.72;;;29.75;;
26951;SDS011;14507;52.418;13.398;2022-12-18T13:28:03;70.53;;;28.25;;
26951;SDS011;14507;52.418;13.398;2022-12-18T13:38:23;77.65;;;31.08;;
26951;SDS011;14507;52.418;13.398;2022-12-18T13:40:56;78.80;;;33.25;;
26951;SDS011;14507;52.418;13.398;2022-12-18T13:49:00;98.13;;;34.55;;
26951;SDS011;14507;52.418;13.398;2022-12-18T13:51:29;92.07;;;33.80;;
26951;SDS011;14507;52.418;13.398;2022-12-18T13:53:58;81.28;;;32.60;;
26951;SDS011;14507;52.418;13.398;2022-12-18T13:56:28;89.18;;;35.50;;
26951;SDS011;14507;52.418;13.398;2022-12-18T14:06:48;117.22;;;40.65;;
26951;SDS011;14507;52.418;13.398;2022-12-18T14:09:17;113.50;;;42.40;;
26951;SDS011;14507;52.418;13.398;2022-12-18T14:11:55;115.40;;;41.80;;
26951;SDS011;14507;52.418;13.398;2022-12-18T14:14:43;119.13;;;41.53;;
26951;SDS011;14507;52.418;13.398;2022-12-18T14:17:12;125.63;;;43.90;;
26951;SDS011;14507;52.418;13.398;2022-12-18T14:19:43;110.97;;;38.63;;
26951;SDS011;14507;52.418;13.398;2022-12-18T14:22:14;115.63;;;39.88;;
26951;SDS011;14507;52.418;13.398;2022-12-18T14:24:45;108.25;;;39.90;;
26951;SDS011;14507;52.418;13.398;2022-12-18T14:27:20;120.18;;;41.95;;
26951;SDS011;14507;52.418;13.398;2022-12-18T14:29:49;113.50;;;39.80;;
26951;SDS011;14507;52.418;13.398;2022-12-18T14:32:17;113.00;;;41.75;;
26951;SDS011;14507;52.418;13.398;2022-12-18T14:34:53;106.38;;;40.13;;
26951;SDS011;14507;52.418;13.398;2022-12-18T14:37:21;100.65;;;38.13;;
26951;SDS011;14507;52.418;13.398;2022-12-18T14:39:56;97.57;;;36.85;;
26951;SDS011;14507;52.418;13.398;2022-12-18T14:42:27;94.05;;;36.38;;
26951;SDS011;14507;52.418;13.398;2022-12-18T14:47:58;74.93;;;31.52;;
26951;SDS011;14507;52.418;13.398;2022-12-18T14:50:25;75.82;;;30.42;;
26951;SDS011;14507;52.418;13.398;2022-12-18T14:52:51;72.22;;;30.45;;
26951;SDS011;14507;52.418;13.398;2022-12-18T14:55:17;78.88;;;30.10;;
26951;SDS011;14507;52.418;13.398;2022-12-18T14:57:44;65.77;;;28.03;;
26951;SDS011;14507;52.418;13.398;2022-12-18T15:00:22;63.22;;;26.33;;
26951;SDS011;14507;52.418;13.398;2022-12-18T15:02:53;64.22;;;26.25;;
26951;SDS011;14507;52.418;13.398;2022-12-18T15:05:24;61.58;;;26.88;;
26951;SDS011;14507;52.418;13.398;2022-12-18T15:07:53;69.65;;;27.80;;
26951;SDS011;14507;52.418;13.398;2022-12-18T15:10:25;63.05;;;27.60;;
26951;SDS011;14507;52.418;13.398;2022-12-18T15:20:39;62.72;;;27.42;;
26951;SDS011;14507;52.418;13.398;2022-12-18T15:23:16;59.90;;;26.27;;
26951;SDS011;14507;52.418;13.398;2022-12-18T15:28:31;56.30;;;25.35;;
26951;SDS011;14507;52.418;13.398;2022-12-18T15:36:19;61.67;;;25.13;;
26951;SDS011;14507;52.418;13.398;2022-12-18T15:38:47;59.22;;;26.25;;
26951;SDS011;14507;52.418;13.398;2022-12-18T15:41:18;59.70;;;25.92;;
26951;SDS011;14507;52.418;13.398;2022-12-18T15:43:46;61.88;;;26.73;;
26951;SDS011;14507;52.418;13.398;2022-12-18T15:46:15;60.42;;;26.02;;
26951;SDS011;14507;52.418;13.398;2022-12-18T15:48:46;57.58;;;24.45;;
26951;SDS011;14507;52.418;13.398;2022-12-18T15:51:17;57.35;;;24.55;;
26951;SDS011;14507;52.418;13.398;2022-12-18T15:53:45;53.45;;;23.63;;
26951;SDS011;14507;52.418;13.398;2022-12-18T15:56:13;56.05;;;24.98;;
26951;SDS011;14507;52.418;13.398;2022-12-18T15:58:58;57.55;;;25.08;;
26951;SDS011;14507;52.418;13.398;2022-12-18T16:01:25;58.22;;;24.02;;
26951;SDS011;14507;52.418;13.398;2022-12-18T16:06:19;53.65;;;23.15;;
26951;SDS011;14507;52.418;13.398;2022-12-18T16:08:45;56.58;;;25.20;;
26951;SDS011;14507;52.418;13.398;2022-12-18T16:11:27;62.72;;;25.95;;
26951;SDS011;14507;52.418;13.398;2022-12-18T16:14:24;59.63;;;24.88;;
26951;SDS011;14507;52.418;13.398;2022-12-18T16:16:57;59.78;;;25.98;;
26951;SDS011;14507;52.418;13.398;2022-12-18T16:19:25;69.88;;;28.40;;
26951;SDS011;14507;52.418;13.398;2022-12-18T16:21:54;62.97;;;26.92;;
26951;SDS011;14507;52.418;13.398;2022-12-18T16:24:22;63.33;;;26.70;;
26951;SDS011;14507;52.418;13.398;2022-12-18T16:26:58;62.58;;;28.23;;
26951;SDS011;14507;52.418;13.398;2022-12-18T16:29:25;62.42;;;26.77;;